Time;durP1;ratioP1;P1;durP2;ratioP2;P2;SDS_P1;SDS_P2;PMS_P1;PMS_P2;Temp;Humidity;BMP_temperature;BMP_pressure;BME280_temperature;BME280_humidity;BME280_pressure;Samples;Min_cycle;Max_cycle;Signal;HPM_P1;HPM_P2
2021/03/28 00:01:14;;;;;;;20.38;3.22;;;7.60;99.90;;;;;;2092921;28;20060;-68
2021/03/28 00:02:23;;;;;;;19.70;3.70;;;7.60;99.90;;;;;;2089852;28;20053;-68
2021/03/28 00:03:54;;;;;;;23.00;3.20;;;7.50;99.90;;;;;;2086550;28;20507;-68
2021/03/28 00:05:08;;;;;;;25.25;4.10;;;7.50;99.90;;;;;;2086763;28;20029;-68
2021/03/28 00:06:16;;;;;;;23.48;3.90;;;7.50;99.90;;;;;;2085919;28;20036;-68
2021/03/28 00:07:19;;;;;;;21.60;3.72;;;7.40;99.90;;;;;;2078731;28;20064;-67
2021/03/28 00:08:26;;;;;;;24.45;3.80;;;7.50;99.90;;;;;;2084850;28;20508;-67
2021/03/28 00:09:50;;;;;;;20.25;3.50;;;7.50;99.90;;;;;;2092093;28;20067;-67
2021/03/28 00:10:54;;;;;;;24.05;3.95;;;7.40;99.90;;;;;;2085661;28;20076;-67
2021/03/28 00:12:31;;;;;;;28.75;4.05;;;7.50;99.90;;;;;;2086034;28;20033;-68
2021/03/28 00:13:45;;;;;;;22.52;3.65;;;7.50;99.90;;;;;;2087576;28;20057;-67
2021/03/28 00:14:52;;;;;;;19.63;3.65;;;7.50;99.90;;;;;;2089384;28;20508;-68
2021/03/28 00:15:55;;;;;;;22.88;3.85;;;7.40;99.90;;;;;;2088705;28;20171;-67
2021/03/28 00:16:56;;;;;;;21.92;2.95;;;7.50;99.90;;;;;;2088694;28;20372;-68
2021/03/28 00:18:06;;;;;;;19.17;3.40;;;7.40;99.90;;;;;;2088717;28;20541;-68
2021/03/28 00:19:17;;;;;;;29.65;4.03;;;7.50;99.90;;;;;;2087398;28;20128;-67
2021/03/28 00:20:18;;;;;;;25.00;3.70;;;7.50;99.90;;;;;;2088574;28;20158;-67
2021/03/28 00:21:22;;;;;;;21.98;4.03;;;7.50;99.90;;;;;;2095244;28;20078;-68
2021/03/28 00:22:30;;;;;;;27.13;4.10;;;7.50;99.90;;;;;;2096620;28;20078;-67
2021/03/28 00:23:31;;;;;;;33.55;3.40;;;7.40;99.90;;;;;;2096950;28;20067;-68
2021/03/28 00:24:39;;;;;;;24.90;4.20;;;7.40;99.90;;;;;;2097419;28;20029;-68
2021/03/28 00:25:42;;;;;;;13.50;3.05;;;7.40;99.90;;;;;;2090546;28;20503;-68
2021/03/28 00:27:02;;;;;;;23.98;4.20;;;7.40;99.90;;;;;;2088465;28;20036;-68
2021/03/28 00:28:08;;;;;;;21.63;4.25;;;7.40;99.90;;;;;;2088493;28;20079;-68
2021/03/28 00:29:25;;;;;;;22.58;3.58;;;7.40;99.90;;;;;;2088917;28;20025;-68
2021/03/28 00:30:41;;;;;;;26.30;4.10;;;7.40;99.90;;;;;;2090466;28;20024;-68
2021/03/28 00:32:09;;;;;;;21.70;3.97;;;7.40;99.90;;;;;;2087140;28;20056;-67
2021/03/28 00:33:09;;;;;;;15.73;3.15;;;7.40;99.90;;;;;;2080762;28;20113;-67
2021/03/28 00:34:18;;;;;;;26.33;3.97;;;7.40;99.90;;;;;;2088089;28;20416;-67
2021/03/28 00:35:28;;;;;;;19.13;3.55;;;7.40;99.90;;;;;;2087553;28;20401;-68
2021/03/28 00:36:36;;;;;;;21.98;4.10;;;7.40;99.90;;;;;;2086316;28;20043;-68
2021/03/28 00:37:40;;;;;;;42.95;3.80;;;7.40;99.90;;;;;;2080244;28;20049;-67
2021/03/28 00:38:41;;;;;;;24.92;3.80;;;7.30;99.90;;;;;;2080269;28;20022;-67
2021/03/28 00:39:57;;;;;;;27.25;3.15;;;7.40;99.90;;;;;;2081068;28;20024;-67
2021/03/28 00:41:21;;;;;;;19.38;2.92;;;7.30;99.90;;;;;;2080527;28;20108;-68
2021/03/28 00:42:51;;;;;;;21.88;3.72;;;7.20;99.90;;;;;;2088165;28;20428;-67
2021/03/28 00:43:55;;;;;;;26.55;3.75;;;7.20;99.90;;;;;;2082433;28;20037;-67
2021/03/28 00:45:01;;;;;;;17.27;3.13;;;7.30;99.90;;;;;;2080323;28;20025;-68
2021/03/28 00:46:02;;;;;;;18.48;3.50;;;7.30;99.90;;;;;;2088388;28;20048;-67
2021/03/28 00:47:05;;;;;;;23.70;3.83;;;7.30;99.90;;;;;;2088306;28;20017;-68
2021/03/28 00:48:15;;;;;;;24.48;4.50;;;7.30;99.90;;;;;;2082768;28;20024;-67
2021/03/28 00:49:33;;;;;;;22.88;3.53;;;7.20;99.90;;;;;;2080612;28;20018;-68
2021/03/28 00:50:39;;;;;;;16.55;2.88;;;7.20;99.90;;;;;;2080935;28;20024;-67
2021/03/28 00:51:46;;;;;;;26.17;3.70;;;7.10;99.90;;;;;;2081310;28;20527;-67
2021/03/28 00:52:59;;;;;;;24.65;4.28;;;7.10;99.90;;;;;;2080626;28;20022;-68
2021/03/28 00:54:20;;;;;;;;;;;7.10;99.90;;;;;;2081060;28;20033;-68
2021/03/28 00:55:26;;;;;;;22.23;3.42;;;7.20;99.90;;;;;;2080876;28;19912;-68
2021/03/28 00:56:42;;;;;;;21.48;3.22;;;7.10;99.90;;;;;;2079874;28;20100;-67
2021/03/28 00:57:45;;;;;;;26.42;3.00;;;7.10;99.90;;;;;;2087841;28;20059;-67
2021/03/28 00:58:45;;;;;;;15.63;3.28;;;7.10;99.90;;;;;;2088072;28;20546;-67
2021/03/28 01:00:10;;;;;;;18.45;3.38;;;7.10;99.90;;;;;;2088701;28;20037;-67
2021/03/28 01:01:32;;;;;;;22.63;3.70;;;7.10;99.90;;;;;;2088267;28;20044;-68
2021/03/28 01:02:38;;;;;;;19.63;3.08;;;7.00;99.90;;;;;;2088224;28;20048;-67
2021/03/28 01:03:56;;;;;;;25.02;3.78;;;7.00;99.90;;;;;;2088582;28;20088;-68
2021/03/28 01:05:00;;;;;;;23.83;4.07;;;7.00;99.90;;;;;;2088042;28;20028;-67
2021/03/28 01:06:14;;;;;;;20.63;3.60;;;7.10;99.90;;;;;;2086285;28;20103;-67
2021/03/28 01:07:23;;;;;;;21.27;3.55;;;7.10;99.90;;;;;;2087518;28;20081;-67
2021/03/28 01:08:36;;;;;;;17.08;3.13;;;7.10;99.90;;;;;;2087279;28;20373;-67
2021/03/28 01:09:55;;;;;;;;;;;7.10;99.90;;;;;;2088558;28;20021;-68
2021/03/28 01:11:20;;;;;;;17.42;3.58;;;7.10;99.90;;;;;;2079499;28;19908;-69
2021/03/28 01:13:12;;;;;;;22.02;3.67;;;7.10;99.90;;;;;;2084809;28;20021;-68
2021/03/28 01:14:39;;;;;;;24.83;3.85;;;7.10;99.90;;;;;;2079267;28;20029;-67
2021/03/28 01:16:01;;;;;;;23.35;3.80;;;7.10;99.90;;;;;;2074953;28;20029;-67
2021/03/28 01:17:43;;;;;;;26.90;3.67;;;7.10;99.90;;;;;;2080226;28;20034;-67
2021/03/28 01:19:17;;;;;;;21.02;3.75;;;7.00;99.90;;;;;;2080213;28;20023;-68
2021/03/28 01:20:52;;;;;;;23.30;3.50;;;7.00;99.90;;;;;;2081377;28;20025;-68
2021/03/28 01:22:09;;;;;;;18.73;3.95;;;7.00;99.90;;;;;;2079787;28;20034;-67
2021/03/28 01:23:13;;;;;;;23.83;3.72;;;7.00;99.90;;;;;;2080423;28;20386;-67
2021/03/28 01:24:39;;;;;;;20.63;3.42;;;6.90;99.90;;;;;;2080402;28;20030;-67
2021/03/28 01:25:49;;;;;;;19.23;3.80;;;6.90;99.90;;;;;;2079740;28;20025;-67
2021/03/28 01:26:52;;;;;;;16.60;3.05;;;6.90;99.90;;;;;;2087673;28;20029;-67
2021/03/28 01:28:00;;;;;;;22.10;3.97;;;6.90;99.90;;;;;;2087788;28;20052;-67
2021/03/28 01:29:17;;;;;;;24.35;2.70;;;6.90;99.90;;;;;;2087244;28;20439;-67
2021/03/28 01:30:23;;;;;;;19.52;3.63;;;6.90;99.90;;;;;;2087497;28;20079;-67
2021/03/28 01:31:46;;;;;;;18.77;2.90;;;6.90;99.90;;;;;;2087064;28;20021;-67
2021/03/28 01:32:57;;;;;;;12.40;2.75;;;7.00;99.90;;;;;;2085886;28;20028;-67
2021/03/28 01:34:04;;;;;;;17.88;2.85;;;6.90;99.90;;;;;;2086276;28;20159;-67
2021/03/28 01:35:10;;;;;;;22.58;4.28;;;6.90;99.90;;;;;;2080207;28;20412;-67
2021/03/28 01:36:22;;;;;;;18.30;3.22;;;6.90;99.90;;;;;;2080660;28;20318;-67
2021/03/28 01:37:31;;;;;;;18.88;3.10;;;7.00;99.90;;;;;;2086214;28;20107;-67
2021/03/28 01:38:34;;;;;;;20.50;3.05;;;7.00;99.90;;;;;;2087924;28;20033;-68
2021/03/28 01:40:01;;;;;;;21.52;3.13;;;7.00;99.90;;;;;;2087897;28;20040;-67
2021/03/28 01:41:12;;;;;;;21.13;3.97;;;6.90;99.90;;;;;;2086327;28;20017;-68
2021/03/28 01:42:54;;;;;;;19.73;3.22;;;7.00;99.90;;;;;;2087560;28;20039;-67
2021/03/28 01:44:20;;;;;;;20.52;3.08;;;6.90;99.90;;;;;;2088035;28;20033;-67
2021/03/28 01:45:32;;;;;;;20.85;3.50;;;6.90;99.90;;;;;;2080137;28;20028;-67
2021/03/28 01:46:54;;;;;;;17.15;3.38;;;6.90;99.90;;;;;;2087709;28;20106;-67
2021/03/28 01:48:13;;;;;;;18.40;3.03;;;6.90;99.90;;;;;;2085232;28;20072;-67
2021/03/28 01:49:16;;;;;;;16.55;3.28;;;6.90;99.90;;;;;;2087784;28;20386;-67
2021/03/28 01:50:35;;;;;;;19.60;3.58;;;6.80;99.90;;;;;;2087459;28;20021;-67
2021/03/28 01:51:45;;;;;;;20.15;3.00;;;6.80;99.90;;;;;;2087997;28;20024;-67
2021/03/28 01:53:07;;;;;;;21.35;3.25;;;6.80;99.90;;;;;;2086976;28;20195;-67
2021/03/28 01:54:32;;;;;;;19.45;3.75;;;6.80;99.90;;;;;;2079813;28;20076;-67
2021/03/28 01:55:47;;;;;;;20.30;3.40;;;6.80;99.90;;;;;;2080309;28;20048;-67
2021/03/28 01:56:48;;;;;;;19.25;3.70;;;6.70;99.90;;;;;;2080368;28;20385;-67
2021/03/28 01:57:53;;;;;;;16.98;3.38;;;6.70;99.90;;;;;;2080322;28;20071;-67
2021/03/28 01:59:12;;;;;;;22.10;3.35;;;6.70;99.90;;;;;;2080610;28;20021;-67
2021/03/28 02:00:21;;;;;;;16.98;3.65;;;6.70;99.90;;;;;;2088257;28;20025;-67
2021/03/28 02:01:40;;;;;;;16.65;3.20;;;6.60;99.90;;;;;;2086732;28;20577;-67
2021/03/28 02:02:57;;;;;;;24.45;4.07;;;6.60;99.90;;;;;;2081140;28;20048;-67
2021/03/28 02:04:32;;;;;;;20.48;2.90;;;6.60;99.90;;;;;;2087841;28;20462;-67
2021/03/28 02:05:33;;;;;;;21.85;3.33;;;6.60;99.90;;;;;;2085846;28;20025;-67
2021/03/28 02:07:06;;;;;;;16.35;2.75;;;6.50;99.90;;;;;;2087406;28;20021;-67
2021/03/28 02:08:17;;;;;;;19.67;3.35;;;6.50;99.90;;;;;;2088537;28;20165;-67
2021/03/28 02:10:06;;;;;;;19.50;3.33;;;6.50;99.90;;;;;;2087749;28;20412;-67
2021/03/28 02:11:26;;;;;;;21.00;3.17;;;6.40;99.90;;;;;;2095818;28;20068;-67
2021/03/28 02:12:38;;;;;;;14.43;2.63;;;6.40;99.90;;;;;;2095439;28;20589;-67
2021/03/28 02:14:16;;;;;;;15.68;2.90;;;6.40;99.90;;;;;;2086075;28;20037;-68
2021/03/28 02:15:30;;;;;;;20.67;2.97;;;6.50;99.90;;;;;;2079282;28;20030;-67
2021/03/28 02:16:36;;;;;;;19.40;2.90;;;6.50;99.90;;;;;;2079501;28;20026;-67
2021/03/28 02:17:40;;;;;;;14.35;2.92;;;6.50;99.90;;;;;;2079382;28;20025;-67
2021/03/28 02:18:51;;;;;;;26.00;3.65;;;6.50;99.90;;;;;;2079187;28;20025;-67
2021/03/28 02:20:00;;;;;;;23.70;5.28;;;6.50;99.90;;;;;;2079591;28;20017;-67
2021/03/28 02:21:32;;;;;;;21.80;3.70;;;6.50;99.90;;;;;;2086477;28;20022;-67
2021/03/28 02:23:06;;;;;;;27.85;3.13;;;6.50;99.90;;;;;;2080331;28;20033;-67
2021/03/28 02:24:10;;;;;;;22.08;3.10;;;6.50;99.90;;;;;;2080122;28;20029;-67
2021/03/28 02:25:20;;;;;;;20.30;3.67;;;6.40;99.90;;;;;;2073513;28;20025;-67
2021/03/28 02:26:29;;;;;;;18.90;3.30;;;6.50;99.90;;;;;;2073473;28;20038;-67
2021/03/28 02:27:44;;;;;;;16.17;3.65;;;6.50;99.90;;;;;;2074031;28;20026;-68
2021/03/28 02:28:56;;;;;;;18.20;3.42;;;6.50;99.90;;;;;;2080280;28;20116;-68
2021/03/28 02:30:22;;;;;;;24.17;3.38;;;6.40;99.90;;;;;;2079369;28;20598;-68
2021/03/28 02:31:36;;;;;;;17.30;2.70;;;6.50;99.90;;;;;;2079461;28;20073;-68
2021/03/28 02:33:08;;;;;;;22.88;2.92;;;6.50;99.90;;;;;;2079224;28;20029;-67
2021/03/28 02:34:41;;;;;;;23.83;2.90;;;6.50;99.90;;;;;;2082033;28;20045;-68
2021/03/28 02:35:57;;;;;;;13.65;2.55;;;6.50;99.90;;;;;;2080163;28;20024;-67
2021/03/28 02:37:22;;;;;;;25.25;3.33;;;6.50;99.90;;;;;;2079749;28;20508;-67
2021/03/28 02:38:53;;;;;;;14.88;2.67;;;6.50;99.90;;;;;;2080522;28;20074;-67
2021/03/28 02:39:56;;;;;;;29.00;4.15;;;6.50;99.90;;;;;;2086456;28;20040;-67
2021/03/28 02:41:00;;;;;;;23.00;3.90;;;6.50;99.90;;;;;;2087186;28;20029;-67
2021/03/28 02:42:22;;;;;;;26.90;4.03;;;6.50;99.90;;;;;;2087670;28;20060;-67
2021/03/28 02:43:28;;;;;;;20.27;3.20;;;6.50;99.90;;;;;;2088288;28;20023;-67
2021/03/28 02:44:57;;;;;;;23.00;2.95;;;6.50;99.90;;;;;;2088323;28;20021;-67
2021/03/28 02:46:25;;;;;;;21.55;3.20;;;6.40;99.90;;;;;;2088541;28;20017;-67
2021/03/28 02:47:38;;;;;;;20.27;3.97;;;6.40;99.90;;;;;;2085098;28;20048;-67
2021/03/28 02:49:11;;;;;;;15.77;2.95;;;6.40;99.90;;;;;;2086038;28;20017;-68
2021/03/28 02:50:34;;;;;;;20.33;3.80;;;6.30;99.90;;;;;;2070514;28;20108;-68
2021/03/28 02:52:07;;;;;;;15.65;3.15;;;6.30;99.90;;;;;;2068513;28;20421;-67
2021/03/28 02:53:19;;;;;;;24.83;3.22;;;6.30;99.90;;;;;;2077062;28;20096;-67
2021/03/28 02:54:23;;;;;;;22.50;3.10;;;6.30;99.90;;;;;;2079308;28;20076;-67
2021/03/28 02:56:03;;;;;;;24.88;3.60;;;6.30;99.90;;;;;;2079019;28;20029;-67
2021/03/28 02:57:18;;;;;;;25.25;4.40;;;6.20;99.90;;;;;;2058804;28;20022;-68
2021/03/28 02:58:38;;;;;;;21.27;3.28;;;6.20;99.90;;;;;;2064059;28;20018;-67
2021/03/28 03:00:07;;;;;;;12.85;2.25;;;6.20;99.90;;;;;;2076476;28;20033;-67
2021/03/28 03:01:13;;;;;;;18.08;3.53;;;6.10;99.90;;;;;;2080192;28;20025;-67
2021/03/28 03:02:38;;;;;;;19.10;2.97;;;6.10;99.90;;;;;;2080124;28;20045;-67
2021/03/28 03:04:16;;;;;;;21.27;3.88;;;6.00;99.90;;;;;;2078977;28;20054;-67
2021/03/28 03:05:34;;;;;;;17.77;2.92;;;6.00;99.90;;;;;;2080609;28;20021;-68
2021/03/28 03:07:05;;;;;;;21.75;3.58;;;6.00;99.90;;;;;;2079417;28;20030;-68
2021/03/28 03:08:33;;;;;;;22.08;3.55;;;6.00;99.90;;;;;;2080580;28;20029;-68
2021/03/28 03:10:18;;;;;;;14.82;3.10;;;6.00;99.90;;;;;;2084003;28;20026;-67
2021/03/28 03:11:40;;;;;;;22.13;3.50;;;5.90;99.90;;;;;;2080205;28;20033;-68
2021/03/28 03:12:50;;;;;;;28.95;3.90;;;5.90;99.90;;;;;;2079744;28;20068;-67
2021/03/28 03:14:13;;;;;;;18.48;2.75;;;5.90;99.90;;;;;;2079072;28;20651;-67
2021/03/28 03:15:26;;;;;;;27.13;3.10;;;5.90;99.90;;;;;;2079310;28;20103;-67
2021/03/28 03:16:54;;;;;;;17.92;2.90;;;5.90;99.90;;;;;;2079115;28;20032;-68
2021/03/28 03:18:07;;;;;;;19.17;2.90;;;5.90;99.90;;;;;;2081307;28;20029;-68
2021/03/28 03:19:26;;;;;;;;;;;5.90;99.90;;;;;;2088043;28;20506;-67
2021/03/28 03:21:04;;;;;;;25.27;3.30;;;5.90;99.90;;;;;;2088340;28;19991;-68
2021/03/28 03:22:42;;;;;;;21.30;3.25;;;5.80;99.90;;;;;;2079907;28;20554;-67
2021/03/28 03:24:20;;;;;;;28.38;3.72;;;5.90;99.90;;;;;;2079741;28;20440;-67
2021/03/28 03:25:39;;;;;;;19.45;3.28;;;5.90;99.90;;;;;;2079764;28;20527;-67
2021/03/28 03:27:04;;;;;;;18.27;3.38;;;5.90;99.90;;;;;;2083573;28;20127;-68
2021/03/28 03:28:11;;;;;;;48.28;4.78;;;5.90;99.90;;;;;;2087632;28;20035;-67
2021/03/28 03:29:39;;;;;;;32.53;3.33;;;5.90;99.90;;;;;;2087392;28;20045;-68
2021/03/28 03:31:14;;;;;;;21.63;3.08;;;5.90;99.90;;;;;;2087732;28;20040;-67
2021/03/28 03:32:38;;;;;;;26.13;5.10;;;5.80;99.90;;;;;;2084087;28;20288;-68
2021/03/28 03:34:07;;;;;;;21.73;3.53;;;5.80;99.90;;;;;;2079167;28;20547;-67
2021/03/28 03:35:28;;;;;;;21.88;3.83;;;5.70;99.90;;;;;;2087811;28;20391;-68
2021/03/28 03:36:32;;;;;;;19.35;3.90;;;5.70;99.90;;;;;;2085473;28;20033;-68
2021/03/28 03:37:51;;;;;;;21.95;3.22;;;5.70;99.90;;;;;;2087175;28;20017;-68
2021/03/28 03:39:39;;;;;;;16.67;3.78;;;5.70;99.90;;;;;;2087348;28;20458;-68
2021/03/28 03:41:20;;;;;;;26.95;4.20;;;5.70;99.90;;;;;;2085538;28;20044;-68
2021/03/28 03:42:36;;;;;;;26.98;4.38;;;5.70;99.90;;;;;;2046144;29;20047;-67
2021/03/28 03:44:17;;;;;;;16.13;5.13;;;5.60;99.90;;;;;;2088131;28;20506;-68
2021/03/28 03:46:16;;;;;;;23.63;3.75;;;5.60;99.90;;;;;;2088234;28;20024;-68
2021/03/28 03:48:04;;;;;;;27.90;3.75;;;5.60;99.90;;;;;;2069937;28;20087;-68
2021/03/28 03:49:34;;;;;;;27.17;4.03;;;5.60;99.90;;;;;;2088191;28;20056;-68
2021/03/28 03:50:53;;;;;;;23.15;3.58;;;5.60;99.90;;;;;;2081409;28;20037;-69
2021/03/28 03:52:21;;;;;;;23.17;3.10;;;5.60;99.90;;;;;;2082794;28;20018;-71
2021/03/28 03:53:55;;;;;;;26.83;4.28;;;5.60;99.90;;;;;;2080939;28;20018;-68
2021/03/28 03:55:04;;;;;;;15.65;3.15;;;5.60;99.90;;;;;;2080997;28;20033;-68
2021/03/28 03:56:20;;;;;;;25.70;3.55;;;5.60;99.90;;;;;;2081389;28;20014;-68
2021/03/28 03:57:24;;;;;;;17.25;3.50;;;5.60;99.90;;;;;;2080413;28;20674;-68
2021/03/28 03:58:25;;;;;;;14.40;3.13;;;5.60;99.90;;;;;;2088853;28;20045;-68
2021/03/28 03:59:28;;;;;;;16.08;3.38;;;5.60;99.90;;;;;;2089642;28;20028;-67
2021/03/28 04:00:36;;;;;;;19.98;3.30;;;5.60;99.90;;;;;;2089357;28;20032;-67
2021/03/28 04:02:08;;;;;;;16.10;3.78;;;5.60;99.90;;;;;;2087081;28;20179;-68
2021/03/28 04:03:15;;;;;;;18.90;3.05;;;5.60;99.90;;;;;;2088648;28;20021;-68
2021/03/28 04:04:24;;;;;;;20.63;2.88;;;5.70;99.90;;;;;;2088726;28;20036;-68
2021/03/28 04:05:43;;;;;;;20.88;3.60;;;5.70;99.90;;;;;;2087252;28;20021;-68
2021/03/28 04:07:06;;;;;;;16.85;3.72;;;5.80;99.90;;;;;;2088662;28;20032;-67
2021/03/28 04:08:38;;;;;;;19.83;3.88;;;5.80;99.90;;;;;;2089166;28;20394;-68
2021/03/28 04:10:04;;;;;;;25.73;3.67;;;5.90;99.90;;;;;;2089330;28;20036;-68
2021/03/28 04:11:16;;;;;;;25.13;3.10;;;5.90;99.90;;;;;;2087314;28;20025;-68
2021/03/28 04:12:33;;;;;;;24.33;3.42;;;5.90;99.90;;;;;;2089412;28;20056;-68
2021/03/28 04:13:48;;;;;;;22.38;4.22;;;5.90;99.90;;;;;;2089377;28;20025;-68
2021/03/28 04:15:07;;;;;;;25.42;3.75;;;5.90;99.90;;;;;;2088747;28;20059;-68
2021/03/28 04:16:15;;;;;;;17.95;3.28;;;5.90;99.90;;;;;;2081681;28;20127;-68
2021/03/28 04:17:45;;;;;;;18.05;3.05;;;5.80;99.90;;;;;;2081005;28;20021;-68
2021/03/28 04:19:23;;;;;;;16.75;3.45;;;5.70;99.90;;;;;;2080991;28;20034;-68
2021/03/28 04:20:42;;;;;;;23.38;3.80;;;5.70;99.90;;;;;;2081052;28;20703;-68
2021/03/28 04:22:20;;;;;;;25.30;4.38;;;5.60;99.90;;;;;;2081891;28;20045;-69
2021/03/28 04:23:29;;;;;;;16.27;3.20;;;5.60;99.90;;;;;;2089129;28;20024;-68
2021/03/28 04:24:48;;;;;;;19.65;3.97;;;5.60;99.90;;;;;;2088584;28;20123;-68
2021/03/28 04:25:56;;;;;;;24.65;4.88;;;5.50;99.90;;;;;;2088823;28;20565;-68
2021/03/28 04:27:32;;;;;;;20.17;5.03;;;5.50;99.90;;;;;;2083385;28;20539;-68
2021/03/28 04:29:03;;;;;;;25.40;4.63;;;5.50;99.90;;;;;;2081003;28;20404;-68
2021/03/28 04:30:07;;;;;;;31.05;3.63;;;5.50;99.90;;;;;;2081327;28;20202;-67
2021/03/28 04:31:45;;;;;;;31.55;4.53;;;5.50;99.90;;;;;;2080481;28;20109;-68
2021/03/28 04:32:48;;;;;;;27.42;4.82;;;5.50;99.90;;;;;;2085531;28;20029;-68
2021/03/28 04:34:18;;;;;;;20.63;4.10;;;5.40;99.90;;;;;;2089349;28;20025;-68
2021/03/28 04:35:30;;;;;;;22.45;4.47;;;5.40;99.90;;;;;;2087959;28;20048;-68
2021/03/28 04:36:45;;;;;;;23.67;5.38;;;5.40;99.90;;;;;;2088471;28;20070;-71
2021/03/28 04:37:57;;;;;;;27.55;5.22;;;5.30;99.90;;;;;;2088546;28;20608;-68
2021/03/28 04:39:06;;;;;;;21.40;4.68;;;5.30;99.90;;;;;;2088626;28;20060;-70
2021/03/28 04:40:18;;;;;;;30.20;4.65;;;5.20;99.90;;;;;;2086843;28;20104;-68
2021/03/28 04:41:37;;;;;;;;;;;5.20;99.90;;;;;;2089527;28;20108;-68
2021/03/28 04:42:53;;;;;;;27.40;6.25;;;5.20;99.90;;;;;;2089451;28;19955;-68
2021/03/28 04:44:12;;;;;;;23.90;5.50;;;5.10;99.90;;;;;;2087413;28;20021;-68
2021/03/28 04:45:31;;;;;;;23.90;4.97;;;5.10;99.90;;;;;;2085350;28;20110;-68
2021/03/28 04:46:32;;;;;;;24.35;4.72;;;5.10;99.90;;;;;;2081318;28;20040;-67
2021/03/28 04:47:51;;;;;;;26.33;4.65;;;5.10;99.90;;;;;;2080291;28;20392;-68
2021/03/28 04:49:21;;;;;;;24.35;5.10;;;5.10;99.90;;;;;;2080461;28;20100;-68
2021/03/28 04:50:36;;;;;;;25.73;4.70;;;5.10;99.90;;;;;;2081132;28;20104;-68
2021/03/28 04:52:15;;;;;;;20.27;4.22;;;5.10;99.90;;;;;;2083418;28;20524;-68
2021/03/28 04:53:34;;;;;;;22.52;4.93;;;5.00;99.90;;;;;;2081548;28;20037;-69
2021/03/28 04:54:50;;;;;;;39.00;5.43;;;5.00;99.90;;;;;;2082014;28;20512;-68
2021/03/28 04:56:20;;;;;;;22.98;4.18;;;5.00;99.90;;;;;;2080887;28;20411;-68
2021/03/28 04:57:51;;;;;;;29.25;4.85;;;5.00;99.90;;;;;;2079943;28;20497;-68
2021/03/28 04:59:07;;;;;;;35.03;4.30;;;5.00;99.90;;;;;;2080926;28;20029;-68
2021/03/28 05:00:25;;;;;;;17.55;4.13;;;5.00;99.90;;;;;;2080078;28;20026;-68
2021/03/28 05:01:52;;;;;;;24.15;4.28;;;5.00;99.90;;;;;;2073677;28;20310;-68
2021/03/28 05:03:02;;;;;;;18.17;4.40;;;5.10;99.90;;;;;;2080480;28;20651;-68
2021/03/28 05:04:33;;;;;;;21.27;4.57;;;5.10;99.90;;;;;;2080994;28;20033;-68
2021/03/28 05:05:53;;;;;;;17.08;3.70;;;5.20;99.90;;;;;;2084062;28;20017;-68
2021/03/28 05:07:24;;;;;;;25.13;4.60;;;5.20;99.90;;;;;;2088384;28;20025;-68
2021/03/28 05:08:33;;;;;;;28.40;4.45;;;5.20;99.90;;;;;;2088254;28;20124;-68
2021/03/28 05:09:40;;;;;;;25.23;4.97;;;5.30;99.90;;;;;;2088453;28;20025;-69
2021/03/28 05:11:11;;;;;;;28.20;4.57;;;5.20;99.90;;;;;;2086696;28;20100;-69
2021/03/28 05:12:24;;;;;;;24.50;4.20;;;5.20;99.90;;;;;;2088084;28;20671;-69
2021/03/28 05:13:43;;;;;;;;;;;5.30;99.90;;;;;;2088948;28;20096;-68
2021/03/28 05:14:55;;;;;;;20.67;4.57;;;5.30;99.90;;;;;;2088873;28;19954;-68
2021/03/28 05:16:07;;;;;;;30.70;4.22;;;5.30;99.90;;;;;;2088117;28;20039;-68
2021/03/28 05:17:23;;;;;;;25.45;4.03;;;5.30;99.90;;;;;;2088472;28;20115;-68
2021/03/28 05:19:01;;;;;;;25.52;5.22;;;5.30;99.90;;;;;;2082382;28;20108;-68
2021/03/28 05:20:33;;;;;;;21.35;4.28;;;5.30;99.90;;;;;;2081101;28;20040;-68
2021/03/28 05:21:53;;;;;;;19.90;3.78;;;5.30;99.90;;;;;;2084781;28;20118;-68
2021/03/28 05:23:18;;;;;;;24.90;3.60;;;5.30;99.90;;;;;;2088667;28;20100;-68
2021/03/28 05:24:40;;;;;;;22.45;5.05;;;5.40;99.90;;;;;;2083474;28;20057;-68
2021/03/28 05:26:02;;;;;;;28.40;5.30;;;5.40;99.90;;;;;;2086185;28;20272;-68
2021/03/28 05:27:36;;;;;;;20.20;3.80;;;5.50;99.90;;;;;;2088271;28;20048;-68
2021/03/28 05:28:49;;;;;;;24.45;3.40;;;5.50;99.90;;;;;;2088070;28;20024;-68
2021/03/28 05:30:08;;;;;;;31.75;4.65;;;5.60;99.90;;;;;;2088104;28;20112;-68
2021/03/28 05:31:11;;;;;;;24.38;3.75;;;5.60;99.90;;;;;;2088422;28;20025;-68
2021/03/28 05:32:33;;;;;;;21.77;3.60;;;5.60;99.90;;;;;;2088272;28;20075;-69
2021/03/28 05:34:21;;;;;;;16.80;3.65;;;5.60;99.90;;;;;;2082496;28;20086;-68
2021/03/28 05:35:27;;;;;;;27.92;3.67;;;5.80;99.90;;;;;;2072982;28;20032;-69
2021/03/28 05:36:43;;;;;;;31.30;3.50;;;5.90;99.90;;;;;;2086254;28;20037;-69
2021/03/28 05:38:05;;;;;;;27.70;4.25;;;6.00;99.90;;;;;;2088259;28;20032;-69
2021/03/28 05:39:23;;;;;;;18.17;4.32;;;6.10;99.90;;;;;;2088521;28;20072;-68
2021/03/28 05:40:38;;;;;;;23.67;3.47;;;6.20;99.90;;;;;;2086247;28;20545;-68
2021/03/28 05:42:03;;;;;;;18.20;2.95;;;6.30;99.90;;;;;;2088367;28;20033;-68
2021/03/28 05:43:25;;;;;;;19.55;3.65;;;6.40;99.90;;;;;;2088048;28;20538;-68
2021/03/28 05:44:44;;;;;;;21.15;3.38;;;6.50;99.90;;;;;;2088369;28;20476;-68
2021/03/28 05:46:17;;;;;;;20.25;4.60;;;6.60;99.90;;;;;;2087763;28;20039;-68
2021/03/28 05:47:59;;;;;;;25.70;3.40;;;6.60;99.90;;;;;;2087819;28;20158;-69
2021/03/28 05:49:16;;;;;;;22.30;4.00;;;6.70;99.90;;;;;;2079135;28;20112;-68
2021/03/28 05:50:47;;;;;;;21.02;3.50;;;6.80;99.90;;;;;;2080442;28;20040;-69
2021/03/28 05:52:18;;;;;;;24.35;3.38;;;6.80;99.90;;;;;;2080647;28;20033;-69
2021/03/28 05:53:38;;;;;;;27.98;3.65;;;6.90;99.90;;;;;;2080520;28;20017;-68
2021/03/28 05:55:06;;;;;;;25.23;3.38;;;6.90;99.90;;;;;;2082051;28;20455;-68
2021/03/28 05:56:37;;;;;;;22.38;3.10;;;7.00;99.90;;;;;;2087763;28;20060;-68
2021/03/28 05:57:46;;;;;;;16.88;3.75;;;7.00;99.90;;;;;;2088298;28;20330;-69
2021/03/28 05:59:18;;;;;;;16.30;3.17;;;7.10;99.90;;;;;;2088678;28;20480;-69
2021/03/28 06:00:59;;;;;;;18.45;4.47;;;7.10;99.90;;;;;;2085498;28;20074;-68
2021/03/28 06:02:21;;;;;;;18.38;3.60;;;7.10;99.90;;;;;;2087113;28;20049;-68
2021/03/28 06:04:06;;;;;;;19.05;2.90;;;7.20;99.90;;;;;;2087420;28;20021;-69
2021/03/28 06:05:34;;;;;;;19.30;3.00;;;7.20;99.90;;;;;;2054839;28;20389;-68
2021/03/28 06:06:59;;;;;;;13.70;2.95;;;7.20;99.90;;;;;;2054790;28;20490;-69
2021/03/28 06:08:27;;;;;;;18.50;3.70;;;7.10;99.90;;;;;;2060115;28;20440;-68
2021/03/28 06:09:58;;;;;;;21.02;3.35;;;7.10;99.90;;;;;;2054696;28;20026;-68
2021/03/28 06:11:01;;;;;;;20.88;3.40;;;7.10;99.90;;;;;;2077138;28;20268;-68
2021/03/28 06:12:21;;;;;;;21.05;4.28;;;7.10;99.90;;;;;;2088341;28;20032;-68
2021/03/28 06:13:30;;;;;;;19.65;3.72;;;7.20;99.90;;;;;;2084284;28;20055;-68
2021/03/28 06:14:49;;;;;;;17.15;3.92;;;7.20;99.90;;;;;;2088720;28;20423;-68
2021/03/28 06:16:29;;;;;;;21.17;4.05;;;7.20;99.90;;;;;;2088301;28;20056;-68
2021/03/28 06:17:56;;;;;;;16.52;3.22;;;7.10;99.90;;;;;;2077354;28;20013;-68
2021/03/28 06:19:14;;;;;;;21.90;3.33;;;7.10;99.90;;;;;;2087943;28;20021;-68
2021/03/28 06:20:36;;;;;;;21.83;4.88;;;7.20;99.90;;;;;;2087617;28;20492;-68
2021/03/28 06:21:51;;;;;;;28.48;4.20;;;7.20;99.90;;;;;;2080036;28;20017;-68
2021/03/28 06:23:31;;;;;;;17.45;3.10;;;7.20;99.90;;;;;;2080267;28;20288;-68
2021/03/28 06:25:03;;;;;;;17.38;4.10;;;7.30;99.90;;;;;;2079463;28;20026;-68
2021/03/28 06:26:40;;;;;;;18.02;3.58;;;7.30;99.90;;;;;;2080524;28;20120;-68
2021/03/28 06:27:43;;;;;;;18.27;3.65;;;7.30;99.90;;;;;;2079939;28;20109;-67
2021/03/28 06:29:10;;;;;;;20.20;3.75;;;7.30;99.90;;;;;;2080133;28;20025;-68
2021/03/28 06:30:35;;;;;;;19.20;3.05;;;7.30;99.90;;;;;;2080048;28;20388;-68
2021/03/28 06:32:13;;;;;;;22.90;3.47;;;7.30;99.90;;;;;;2080099;28;20025;-67
2021/03/28 06:33:51;;;;;;;18.42;2.90;;;7.30;99.90;;;;;;2080307;28;20268;-67
2021/03/28 06:35:26;;;;;;;15.95;3.17;;;7.30;99.90;;;;;;2079976;28;20492;-67
2021/03/28 06:36:57;;;;;;;22.08;3.25;;;7.30;99.90;;;;;;2079440;28;20396;-68
2021/03/28 06:38:21;;;;;;;13.57;3.20;;;7.30;99.90;;;;;;2075372;28;20030;-68
2021/03/28 06:39:38;;;;;;;16.52;3.75;;;7.30;99.90;;;;;;2079364;28;20088;-68
2021/03/28 06:40:58;;;;;;;20.15;3.67;;;7.40;99.90;;;;;;2078790;28;20544;-68
2021/03/28 06:42:16;;;;;;;25.98;3.83;;;7.40;99.90;;;;;;2080210;28;20399;-69
2021/03/28 06:43:46;;;;;;;22.55;3.85;;;7.40;99.90;;;;;;2081602;28;20025;-67
2021/03/28 06:45:01;;;;;;;18.75;3.20;;;7.40;99.90;;;;;;2088138;28;20028;-68
2021/03/28 06:46:32;;;;;;;18.60;3.47;;;7.50;99.90;;;;;;2085524;28;20115;-68
2021/03/28 06:47:45;;;;;;;28.05;4.82;;;7.60;99.90;;;;;;2087879;28;20492;-68
2021/03/28 06:49:12;;;;;;;;;;;7.60;99.90;;;;;;2088602;28;20033;-68
2021/03/28 06:50:32;;;;;;;16.05;2.60;;;7.70;99.90;;;;;;2087572;28;19905;-68
2021/03/28 06:51:43;;;;;;;24.50;3.15;;;7.70;99.90;;;;;;2082469;28;20112;-68
2021/03/28 06:52:59;;;;;;;19.83;3.30;;;7.70;99.90;;;;;;2087438;28;20394;-68
2021/03/28 06:54:22;;;;;;;22.02;3.58;;;7.70;99.90;;;;;;2088176;28;20025;-67